sensor_id;sensor_type;location;lat;lon;timestamp;P1;durP1;ratioP1;P2;durP2;ratioP2
2872;SDS011;1444;49.166;7.312;2023-05-16T00:01:07;41.80;;;21.17;;
2872;SDS011;1444;49.166;7.312;2023-05-16T00:03:34;35.70;;;22.73;;
2872;SDS011;1444;49.166;7.312;2023-05-16T00:06:02;37.87;;;21.20;;
2872;SDS011;1444;49.166;7.312;2023-05-16T00:08:30;29.20;;;20.60;;
2872;SDS011;1444;49.166;7.312;2023-05-16T00:10:57;32.90;;;21.60;;
2872;SDS011;1444;49.166;7.312;2023-05-16T00:13:24;32.23;;;20.17;;
2872;SDS011;1444;49.166;7.312;2023-05-16T00:15:51;31.23;;;22.07;;
2872;SDS011;1444;49.166;7.312;2023-05-16T00:18:19;30.77;;;20.20;;
2872;SDS011;1444;49.166;7.312;2023-05-16T00:20:46;32.17;;;20.17;;
2872;SDS011;1444;49.166;7.312;2023-05-16T00:23:13;30.50;;;20.10;;
2872;SDS011;1444;49.166;7.312;2023-05-16T00:25:42;33.83;;;21.47;;
2872;SDS011;1444;49.166;7.312;2023-05-16T00:28:11;30.00;;;20.67;;
2872;SDS011;1444;49.166;7.312;2023-05-16T00:30:37;35.13;;;20.30;;
2872;SDS011;1444;49.166;7.312;2023-05-16T00:33:04;29.27;;;19.10;;
2872;SDS011;1444;49.166;7.312;2023-05-16T00:35:31;31.50;;;19.97;;
2872;SDS011;1444;49.166;7.312;2023-05-16T00:37:58;32.03;;;21.73;;
2872;SDS011;1444;49.166;7.312;2023-05-16T00:40:25;33.37;;;19.57;;
2872;SDS011;1444;49.166;7.312;2023-05-16T00:42:53;30.30;;;18.53;;
2872;SDS011;1444;49.166;7.312;2023-05-16T00:45:20;28.97;;;17.80;;
2872;SDS011;1444;49.166;7.312;2023-05-16T00:47:47;32.47;;;19.27;;
2872;SDS011;1444;49.166;7.312;2023-05-16T00:50:14;31.73;;;19.00;;
2872;SDS011;1444;49.166;7.312;2023-05-16T00:52:42;27.13;;;17.73;;
2872;SDS011;1444;49.166;7.312;2023-05-16T00:55:09;29.60;;;17.63;;
2872;SDS011;1444;49.166;7.312;2023-05-16T00:57:36;29.07;;;18.17;;
2872;SDS011;1444;49.166;7.312;2023-05-16T01:00:05;27.57;;;18.00;;
2872;SDS011;1444;49.166;7.312;2023-05-16T01:02:33;32.40;;;18.10;;
2872;SDS011;1444;49.166;7.312;2023-05-16T01:05:00;36.07;;;18.63;;
2872;SDS011;1444;49.166;7.312;2023-05-16T01:07:29;26.43;;;17.20;;
2872;SDS011;1444;49.166;7.312;2023-05-16T01:09:56;27.57;;;17.37;;
2872;SDS011;1444;49.166;7.312;2023-05-16T01:12:26;28.70;;;16.07;;
2872;SDS011;1444;49.166;7.312;2023-05-16T01:15:06;27.90;;;17.20;;
2872;SDS011;1444;49.166;7.312;2023-05-16T01:17:36;29.33;;;17.60;;
2872;SDS011;1444;49.166;7.312;2023-05-16T01:20:10;28.40;;;16.93;;
2872;SDS011;1444;49.166;7.312;2023-05-16T01:22:47;26.87;;;15.80;;
2872;SDS011;1444;49.166;7.312;2023-05-16T01:25:30;29.43;;;16.57;;
2872;SDS011;1444;49.166;7.312;2023-05-16T01:28:05;23.67;;;15.87;;
2872;SDS011;1444;49.166;7.312;2023-05-16T01:30:34;24.57;;;15.40;;
2872;SDS011;1444;49.166;7.312;2023-05-16T01:33:02;24.10;;;15.37;;
2872;SDS011;1444;49.166;7.312;2023-05-16T01:35:29;33.63;;;16.50;;
2872;SDS011;1444;49.166;7.312;2023-05-16T01:37:57;23.87;;;15.30;;
2872;SDS011;1444;49.166;7.312;2023-05-16T01:40:35;26.47;;;15.40;;
2872;SDS011;1444;49.166;7.312;2023-05-16T01:43:10;27.70;;;14.97;;
2872;SDS011;1444;49.166;7.312;2023-05-16T01:45:45;31.20;;;15.10;;
2872;SDS011;1444;49.166;7.312;2023-05-16T01:48:19;31.80;;;16.70;;
2872;SDS011;1444;49.166;7.312;2023-05-16T01:50:49;24.97;;;14.97;;
2872;SDS011;1444;49.166;7.312;2023-05-16T01:53:19;21.37;;;13.40;;
2872;SDS011;1444;49.166;7.312;2023-05-16T01:55:50;24.83;;;14.27;;
2872;SDS011;1444;49.166;7.312;2023-05-16T01:58:20;23.77;;;14.20;;
2872;SDS011;1444;49.166;7.312;2023-05-16T02:00:49;25.63;;;14.10;;
2872;SDS011;1444;49.166;7.312;2023-05-16T02:03:17;22.33;;;13.00;;
2872;SDS011;1444;49.166;7.312;2023-05-16T02:05:44;20.70;;;12.47;;
2872;SDS011;1444;49.166;7.312;2023-05-16T02:08:12;25.43;;;13.50;;
2872;SDS011;1444;49.166;7.312;2023-05-16T02:10:39;22.57;;;13.50;;
2872;SDS011;1444;49.166;7.312;2023-05-16T02:13:06;20.00;;;12.00;;
2872;SDS011;1444;49.166;7.312;2023-05-16T02:15:34;22.43;;;12.77;;
2872;SDS011;1444;49.166;7.312;2023-05-16T02:18:01;20.27;;;12.13;;
2872;SDS011;1444;49.166;7.312;2023-05-16T02:20:27;22.33;;;12.13;;
2872;SDS011;1444;49.166;7.312;2023-05-16T02:22:54;20.47;;;12.60;;
2872;SDS011;1444;49.166;7.312;2023-05-16T02:25:21;19.80;;;12.70;;
2872;SDS011;1444;49.166;7.312;2023-05-16T02:27:49;24.07;;;11.80;;
2872;SDS011;1444;49.166;7.312;2023-05-16T02:30:15;22.90;;;12.53;;
2872;SDS011;1444;49.166;7.312;2023-05-16T02:32:44;19.90;;;11.63;;
2872;SDS011;1444;49.166;7.312;2023-05-16T02:35:11;17.47;;;12.20;;
2872;SDS011;1444;49.166;7.312;2023-05-16T02:37:37;21.03;;;12.10;;
2872;SDS011;1444;49.166;7.312;2023-05-16T02:40:05;17.00;;;11.43;;
2872;SDS011;1444;49.166;7.312;2023-05-16T02:42:33;18.53;;;10.70;;
2872;SDS011;1444;49.166;7.312;2023-05-16T02:45:00;19.93;;;12.73;;
2872;SDS011;1444;49.166;7.312;2023-05-16T02:47:26;19.70;;;12.73;;
2872;SDS011;1444;49.166;7.312;2023-05-16T02:49:55;18.37;;;12.00;;
2872;SDS011;1444;49.166;7.312;2023-05-16T02:52:22;21.77;;;11.10;;
2872;SDS011;1444;49.166;7.312;2023-05-16T02:54:49;22.90;;;12.03;;
2872;SDS011;1444;49.166;7.312;2023-05-16T02:57:15;19.93;;;11.73;;
2872;SDS011;1444;49.166;7.312;2023-05-16T02:59:42;20.60;;;11.27;;
2872;SDS011;1444;49.166;7.312;2023-05-16T03:02:09;20.27;;;12.30;;
2872;SDS011;1444;49.166;7.312;2023-05-16T03:04:36;21.37;;;11.80;;
2872;SDS011;1444;49.166;7.312;2023-05-16T03:07:04;24.67;;;16.13;;
2872;SDS011;1444;49.166;7.312;2023-05-16T03:09:31;60.23;;;29.57;;
2872;SDS011;1444;49.166;7.312;2023-05-16T03:11:58;22.77;;;14.73;;
2872;SDS011;1444;49.166;7.312;2023-05-16T03:14:25;24.90;;;14.43;;
2872;SDS011;1444;49.166;7.312;2023-05-16T03:16:52;18.20;;;12.47;;
2872;SDS011;1444;49.166;7.312;2023-05-16T03:19:19;25.57;;;12.27;;
2872;SDS011;1444;49.166;7.312;2023-05-16T03:21:46;20.70;;;11.57;;
2872;SDS011;1444;49.166;7.312;2023-05-16T03:24:14;21.27;;;11.20;;
2872;SDS011;1444;49.166;7.312;2023-05-16T03:26:41;18.33;;;11.10;;
2872;SDS011;1444;49.166;7.312;2023-05-16T03:29:08;16.63;;;11.37;;
2872;SDS011;1444;49.166;7.312;2023-05-16T03:31:35;19.80;;;12.20;;
2872;SDS011;1444;49.166;7.312;2023-05-16T03:34:02;19.00;;;10.67;;
2872;SDS011;1444;49.166;7.312;2023-05-16T03:36:28;17.67;;;10.60;;
2872;SDS011;1444;49.166;7.312;2023-05-16T03:38:55;23.57;;;11.47;;
2872;SDS011;1444;49.166;7.312;2023-05-16T03:41:23;19.57;;;11.47;;
2872;SDS011;1444;49.166;7.312;2023-05-16T03:43:51;16.57;;;10.70;;
2872;SDS011;1444;49.166;7.312;2023-05-16T03:46:17;20.13;;;13.70;;
2872;SDS011;1444;49.166;7.312;2023-05-16T03:48:44;18.90;;;11.03;;
2872;SDS011;1444;49.166;7.312;2023-05-16T03:51:11;23.63;;;11.87;;
2872;SDS011;1444;49.166;7.312;2023-05-16T03:53:38;21.47;;;11.23;;
2872;SDS011;1444;49.166;7.312;2023-05-16T03:56:05;19.67;;;11.80;;
2872;SDS011;1444;49.166;7.312;2023-05-16T03:58:33;18.90;;;12.23;;
2872;SDS011;1444;49.166;7.312;2023-05-16T04:01:00;24.07;;;12.50;;
2872;SDS011;1444;49.166;7.312;2023-05-16T04:03:27;23.70;;;11.27;;
2872;SDS011;1444;49.166;7.312;2023-05-16T04:05:54;23.50;;;13.17;;
2872;SDS011;1444;49.166;7.312;2023-05-16T04:08:21;22.57;;;13.10;;
2872;SDS011;1444;49.166;7.312;2023-05-16T04:10:48;22.07;;;12.93;;
2872;SDS011;1444;49.166;7.312;2023-05-16T04:13:15;21.00;;;11.10;;
2872;SDS011;1444;49.166;7.312;2023-05-16T04:15:43;18.83;;;11.90;;
2872;SDS011;1444;49.166;7.312;2023-05-16T04:18:11;20.87;;;12.30;;
2872;SDS011;1444;49.166;7.312;2023-05-16T04:20:38;17.50;;;11.43;;
2872;SDS011;1444;49.166;7.312;2023-05-16T04:23:06;20.63;;;11.97;;
2872;SDS011;1444;49.166;7.312;2023-05-16T04:25:35;21.67;;;11.80;;
2872;SDS011;1444;49.166;7.312;2023-05-16T04:28:01;18.50;;;10.97;;
2872;SDS011;1444;49.166;7.312;2023-05-16T04:30:28;19.27;;;11.57;;
2872;SDS011;1444;49.166;7.312;2023-05-16T04:32:57;17.40;;;11.00;;
2872;SDS011;1444;49.166;7.312;2023-05-16T04:35:24;22.40;;;11.03;;
2872;SDS011;1444;49.166;7.312;2023-05-16T04:37:52;20.20;;;12.27;;
2872;SDS011;1444;49.166;7.312;2023-05-16T04:40:18;15.33;;;10.00;;
2872;SDS011;1444;49.166;7.312;2023-05-16T04:42:45;15.37;;;11.20;;
2872;SDS011;1444;49.166;7.312;2023-05-16T04:45:12;19.40;;;10.73;;
2872;SDS011;1444;49.166;7.312;2023-05-16T04:47:39;14.73;;;9.90;;
2872;SDS011;1444;49.166;7.312;2023-05-16T04:50:08;19.10;;;11.33;;
2872;SDS011;1444;49.166;7.312;2023-05-16T04:52:35;21.13;;;12.20;;
2872;SDS011;1444;49.166;7.312;2023-05-16T04:55:03;21.47;;;12.97;;
2872;SDS011;1444;49.166;7.312;2023-05-16T04:57:30;16.33;;;10.43;;
2872;SDS011;1444;49.166;7.312;2023-05-16T04:59:57;17.43;;;10.60;;
2872;SDS011;1444;49.166;7.312;2023-05-16T05:02:24;16.30;;;9.83;;
2872;SDS011;1444;49.166;7.312;2023-05-16T05:04:51;16.37;;;10.60;;
2872;SDS011;1444;49.166;7.312;2023-05-16T05:07:20;28.13;;;17.93;;
2872;SDS011;1444;49.166;7.312;2023-05-16T05:09:46;17.57;;;11.00;;
2872;SDS011;1444;49.166;7.312;2023-05-16T05:12:13;14.50;;;9.80;;
2872;SDS011;1444;49.166;7.312;2023-05-16T05:14:40;15.30;;;9.40;;
2872;SDS011;1444;49.166;7.312;2023-05-16T05:17:07;18.30;;;10.87;;
2872;SDS011;1444;49.166;7.312;2023-05-16T05:19:33;20.27;;;10.43;;
2872;SDS011;1444;49.166;7.312;2023-05-16T05:22:00;19.00;;;9.90;;
2872;SDS011;1444;49.166;7.312;2023-05-16T05:24:28;13.60;;;9.63;;
2872;SDS011;1444;49.166;7.312;2023-05-16T05:26:55;18.83;;;10.03;;
2872;SDS011;1444;49.166;7.312;2023-05-16T05:29:22;18.27;;;10.70;;
2872;SDS011;1444;49.166;7.312;2023-05-16T05:31:49;14.37;;;9.40;;
2872;SDS011;1444;49.166;7.312;2023-05-16T05:34:16;22.60;;;9.50;;
2872;SDS011;1444;49.166;7.312;2023-05-16T05:36:42;15.03;;;9.17;;
2872;SDS011;1444;49.166;7.312;2023-05-16T05:39:09;14.53;;;9.50;;
2872;SDS011;1444;49.166;7.312;2023-05-16T05:41:37;13.20;;;9.30;;
2872;SDS011;1444;49.166;7.312;2023-05-16T05:44:05;13.30;;;8.47;;
2872;SDS011;1444;49.166;7.312;2023-05-16T05:46:32;10.43;;;6.47;;
2872;SDS011;1444;49.166;7.312;2023-05-16T05:48:59;13.63;;;8.17;;
2872;SDS011;1444;49.166;7.312;2023-05-16T05:51:26;16.30;;;6.97;;
2872;SDS011;1444;49.166;7.312;2023-05-16T05:53:53;11.43;;;6.60;;
2872;SDS011;1444;49.166;7.312;2023-05-16T05:56:21;7.57;;;5.90;;
2872;SDS011;1444;49.166;7.312;2023-05-16T05:58:50;7.50;;;6.17;;
2872;SDS011;1444;49.166;7.312;2023-05-16T06:01:17;9.10;;;6.70;;
2872;SDS011;1444;49.166;7.312;2023-05-16T06:03:45;9.10;;;5.70;;
2872;SDS011;1444;49.166;7.312;2023-05-16T06:06:12;9.30;;;6.30;;
2872;SDS011;1444;49.166;7.312;2023-05-16T06:08:40;9.00;;;5.00;;
2872;SDS011;1444;49.166;7.312;2023-05-16T06:11:06;7.77;;;5.87;;
2872;SDS011;1444;49.166;7.312;2023-05-16T06:13:33;6.37;;;4.83;;
2872;SDS011;1444;49.166;7.312;2023-05-16T06:16:02;6.73;;;5.10;;
2872;SDS011;1444;49.166;7.312;2023-05-16T06:18:29;8.40;;;5.97;;
2872;SDS011;1444;49.166;7.312;2023-05-16T06:20:56;8.47;;;5.23;;
2872;SDS011;1444;49.166;7.312;2023-05-16T06:23:23;4.43;;;4.03;;
2872;SDS011;1444;49.166;7.312;2023-05-16T06:25:50;4.47;;;4.07;;
2872;SDS011;1444;49.166;7.312;2023-05-16T06:28:16;3.97;;;3.13;;
2872;SDS011;1444;49.166;7.312;2023-05-16T06:30:43;6.97;;;2.30;;
2872;SDS011;1444;49.166;7.312;2023-05-16T06:33:13;4.07;;;2.23;;
2872;SDS011;1444;49.166;7.312;2023-05-16T06:35:40;3.57;;;2.27;;
2872;SDS011;1444;49.166;7.312;2023-05-16T06:38:07;7.57;;;2.17;;
2872;SDS011;1444;49.166;7.312;2023-05-16T06:40:34;2.37;;;1.97;;
2872;SDS011;1444;49.166;7.312;2023-05-16T06:43:01;2.57;;;1.57;;
2872;SDS011;1444;49.166;7.312;2023-05-16T06:45:28;4.37;;;1.97;;
2872;SDS011;1444;49.166;7.312;2023-05-16T06:47:55;2.00;;;1.40;;
2872;SDS011;1444;49.166;7.312;2023-05-16T06:50:23;2.40;;;1.37;;
2872;SDS011;1444;49.166;7.312;2023-05-16T06:52:50;2.83;;;1.30;;
2872;SDS011;1444;49.166;7.312;2023-05-16T06:55:17;1.90;;;1.03;;
2872;SDS011;1444;49.166;7.312;2023-05-16T06:57:44;3.27;;;1.50;;
2872;SDS011;1444;49.166;7.312;2023-05-16T07:00:11;2.17;;;1.27;;
2872;SDS011;1444;49.166;7.312;2023-05-16T07:02:38;2.40;;;1.40;;
2872;SDS011;1444;49.166;7.312;2023-05-16T07:05:05;2.20;;;1.53;;
2872;SDS011;1444;49.166;7.312;2023-05-16T07:07:34;2.10;;;1.40;;
2872;SDS011;1444;49.166;7.312;2023-05-16T07:10:01;4.07;;;2.60;;
2872;SDS011;1444;49.166;7.312;2023-05-16T07:12:28;2.70;;;2.07;;
2872;SDS011;1444;49.166;7.312;2023-05-16T07:14:55;2.10;;;1.50;;
2872;SDS011;1444;49.166;7.312;2023-05-16T07:17:22;5.43;;;1.60;;
2872;SDS011;1444;49.166;7.312;2023-05-16T07:19:49;2.40;;;1.47;;
2872;SDS011;1444;49.166;7.312;2023-05-16T07:22:15;1.90;;;1.40;;
2872;SDS011;1444;49.166;7.312;2023-05-16T07:24:44;2.00;;;1.03;;
2872;SDS011;1444;49.166;7.312;2023-05-16T07:27:10;2.60;;;1.60;;
2872;SDS011;1444;49.166;7.312;2023-05-16T07:29:37;2.20;;;1.60;;
2872;SDS011;1444;49.166;7.312;2023-05-16T07:32:05;2.20;;;1.23;;
2872;SDS011;1444;49.166;7.312;2023-05-16T07:34:35;2.17;;;1.70;;
2872;SDS011;1444;49.166;7.312;2023-05-16T07:37:01;3.20;;;1.10;;
2872;SDS011;1444;49.166;7.312;2023-05-16T07:39:29;2.20;;;1.50;;
2872;SDS011;1444;49.166;7.312;2023-05-16T07:41:57;1.90;;;1.33;;
2872;SDS011;1444;49.166;7.312;2023-05-16T07:44:24;3.10;;;1.00;;
2872;SDS011;1444;49.166;7.312;2023-05-16T07:46:50;2.53;;;2.07;;
2872;SDS011;1444;49.166;7.312;2023-05-16T07:49:17;3.00;;;1.77;;
2872;SDS011;1444;49.166;7.312;2023-05-16T07:51:44;3.87;;;2.30;;
2872;SDS011;1444;49.166;7.312;2023-05-16T07:54:11;3.00;;;1.60;;
2872;SDS011;1444;49.166;7.312;2023-05-16T07:56:38;7.07;;;1.33;;
2872;SDS011;1444;49.166;7.312;2023-05-16T07:59:06;1.97;;;0.97;;
2872;SDS011;1444;49.166;7.312;2023-05-16T08:01:33;3.80;;;1.10;;
2872;SDS011;1444;49.166;7.312;2023-05-16T08:04:00;3.80;;;2.50;;
2872;SDS011;1444;49.166;7.312;2023-05-16T08:06:27;1.80;;;1.20;;
2872;SDS011;1444;49.166;7.312;2023-05-16T08:08:55;1.73;;;1.00;;
2872;SDS011;1444;49.166;7.312;2023-05-16T08:11:22;6.27;;;1.60;;
2872;SDS011;1444;49.166;7.312;2023-05-16T08:13:48;2.27;;;1.10;;
2872;SDS011;1444;49.166;7.312;2023-05-16T08:16:17;2.20;;;1.00;;
2872;SDS011;1444;49.166;7.312;2023-05-16T08:18:44;1.70;;;1.10;;
2872;SDS011;1444;49.166;7.312;2023-05-16T08:21:10;1.90;;;1.07;;
2872;SDS011;1444;49.166;7.312;2023-05-16T08:23:38;2.03;;;1.47;;
2872;SDS011;1444;49.166;7.312;2023-05-16T08:26:05;2.00;;;1.10;;
2872;SDS011;1444;49.166;7.312;2023-05-16T08:28:32;2.20;;;1.60;;
2872;SDS011;1444;49.166;7.312;2023-05-16T08:30:59;8.63;;;1.60;;
2872;SDS011;1444;49.166;7.312;2023-05-16T08:33:27;3.23;;;1.37;;
2872;SDS011;1444;49.166;7.312;2023-05-16T08:35:54;6.83;;;1.50;;
2872;SDS011;1444;49.166;7.312;2023-05-16T08:38:21;1.90;;;1.20;;
2872;SDS011;1444;49.166;7.312;2023-05-16T08:40:48;1.90;;;1.30;;
2872;SDS011;1444;49.166;7.312;2023-05-16T08:43:14;1.90;;;1.20;;
2872;SDS011;1444;49.166;7.312;2023-05-16T08:45:41;4.57;;;1.57;;
2872;SDS011;1444;49.166;7.312;2023-05-16T08:48:09;2.50;;;1.23;;
2872;SDS011;1444;49.166;7.312;2023-05-16T08:50:38;2.63;;;1.70;;
2872;SDS011;1444;49.166;7.312;2023-05-16T08:53:07;2.80;;;1.57;;
2872;SDS011;1444;49.166;7.312;2023-05-16T08:55:35;3.07;;;1.33;;
2872;SDS011;1444;49.166;7.312;2023-05-16T08:58:04;3.13;;;1.30;;
2872;SDS011;1444;49.166;7.312;2023-05-16T09:00:31;9.33;;;1.90;;
2872;SDS011;1444;49.166;7.312;2023-05-16T09:02:58;2.63;;;1.90;;
2872;SDS011;1444;49.166;7.312;2023-05-16T09:05:25;2.73;;;1.73;;
2872;SDS011;1444;49.166;7.312;2023-05-16T09:07:56;2.63;;;1.43;;
2872;SDS011;1444;49.166;7.312;2023-05-16T09:10:23;2.40;;;2.20;;
2872;SDS011;1444;49.166;7.312;2023-05-16T09:12:50;2.73;;;1.23;;
2872;SDS011;1444;49.166;7.312;2023-05-16T09:15:18;2.50;;;2.03;;
2872;SDS011;1444;49.166;7.312;2023-05-16T09:17:45;5.17;;;2.00;;
2872;SDS011;1444;49.166;7.312;2023-05-16T09:20:13;2.40;;;1.73;;
2872;SDS011;1444;49.166;7.312;2023-05-16T09:22:49;5.73;;;2.20;;
2872;SDS011;1444;49.166;7.312;2023-05-16T09:25:18;3.67;;;1.90;;
2872;SDS011;1444;49.166;7.312;2023-05-16T09:27:46;2.40;;;2.13;;
2872;SDS011;1444;49.166;7.312;2023-05-16T09:30:14;3.57;;;1.73;;
2872;SDS011;1444;49.166;7.312;2023-05-16T09:32:44;3.90;;;1.70;;
2872;SDS011;1444;49.166;7.312;2023-05-16T09:35:13;4.43;;;1.80;;
2872;SDS011;1444;49.166;7.312;2023-05-16T09:37:43;2.73;;;1.90;;
2872;SDS011;1444;49.166;7.312;2023-05-16T09:40:10;5.93;;;2.13;;
2872;SDS011;1444;49.166;7.312;2023-05-16T09:42:39;2.10;;;1.90;;
2872;SDS011;1444;49.166;7.312;2023-05-16T09:45:07;2.20;;;1.60;;
2872;SDS011;1444;49.166;7.312;2023-05-16T09:47:37;3.63;;;2.20;;
2872;SDS011;1444;49.166;7.312;2023-05-16T09:50:10;2.00;;;1.40;;
2872;SDS011;1444;49.166;7.312;2023-05-16T09:52:39;3.73;;;2.00;;
2872;SDS011;1444;49.166;7.312;2023-05-16T09:55:07;3.17;;;1.97;;
2872;SDS011;1444;49.166;7.312;2023-05-16T09:57:35;2.73;;;2.20;;
2872;SDS011;1444;49.166;7.312;2023-05-16T10:00:05;2.63;;;2.07;;
2872;SDS011;1444;49.166;7.312;2023-05-16T10:02:35;2.70;;;2.00;;
2872;SDS011;1444;49.166;7.312;2023-05-16T10:05:03;7.23;;;2.33;;
2872;SDS011;1444;49.166;7.312;2023-05-16T10:07:30;3.03;;;2.60;;
2872;SDS011;1444;49.166;7.312;2023-05-16T10:09:59;4.17;;;2.60;;
2872;SDS011;1444;49.166;7.312;2023-05-16T10:12:30;5.10;;;2.50;;
2872;SDS011;1444;49.166;7.312;2023-05-16T10:14:59;4.00;;;2.70;;
2872;SDS011;1444;49.166;7.312;2023-05-16T10:17:28;5.07;;;2.80;;
2872;SDS011;1444;49.166;7.312;2023-05-16T10:19:57;7.97;;;3.70;;
2872;SDS011;1444;49.166;7.312;2023-05-16T10:22:30;4.30;;;2.40;;
2872;SDS011;1444;49.166;7.312;2023-05-16T10:24:59;2.43;;;1.90;;
2872;SDS011;1444;49.166;7.312;2023-05-16T10:27:34;3.30;;;2.97;;
2872;SDS011;1444;49.166;7.312;2023-05-16T10:30:01;5.10;;;3.40;;
2872;SDS011;1444;49.166;7.312;2023-05-16T10:32:31;7.10;;;3.07;;
2872;SDS011;1444;49.166;7.312;2023-05-16T10:34:59;5.70;;;2.90;;
2872;SDS011;1444;49.166;7.312;2023-05-16T10:37:27;5.00;;;3.13;;
2872;SDS011;1444;49.166;7.312;2023-05-16T10:39:55;3.70;;;3.20;;
2872;SDS011;1444;49.166;7.312;2023-05-16T10:42:24;2.97;;;2.73;;
2872;SDS011;1444;49.166;7.312;2023-05-16T10:44:52;5.23;;;3.40;;
2872;SDS011;1444;49.166;7.312;2023-05-16T10:47:20;6.17;;;3.47;;
2872;SDS011;1444;49.166;7.312;2023-05-16T10:49:48;3.50;;;2.80;;
2872;SDS011;1444;49.166;7.312;2023-05-16T10:52:15;8.80;;;2.87;;
2872;SDS011;1444;49.166;7.312;2023-05-16T10:54:42;7.53;;;3.80;;
2872;SDS011;1444;49.166;7.312;2023-05-16T10:57:15;4.30;;;3.13;;
2872;SDS011;1444;49.166;7.312;2023-05-16T10:59:45;4.37;;;3.63;;
2872;SDS011;1444;49.166;7.312;2023-05-16T11:02:23;10.10;;;4.07;;
2872;SDS011;1444;49.166;7.312;2023-05-16T11:04:55;5.83;;;4.50;;
2872;SDS011;1444;49.166;7.312;2023-05-16T11:07:23;5.93;;;3.30;;
2872;SDS011;1444;49.166;7.312;2023-05-16T11:10:07;6.07;;;4.07;;
2872;SDS011;1444;49.166;7.312;2023-05-16T11:12:36;5.27;;;3.50;;
2872;SDS011;1444;49.166;7.312;2023-05-16T11:15:16;4.20;;;3.33;;
2872;SDS011;1444;49.166;7.312;2023-05-16T11:17:48;8.23;;;3.30;;
2872;SDS011;1444;49.166;7.312;2023-05-16T11:20:26;10.23;;;3.70;;
2872;SDS011;1444;49.166;7.312;2023-05-16T11:25:52;4.73;;;1.80;;
2872;SDS011;1444;49.166;7.312;2023-05-16T11:28:21;6.20;;;3.30;;
2872;SDS011;1444;49.166;7.312;2023-05-16T11:30:50;7.77;;;3.00;;
2872;SDS011;1444;49.166;7.312;2023-05-16T11:33:20;7.00;;;2.47;;
2872;SDS011;1444;49.166;7.312;2023-05-16T11:36:01;4.80;;;2.87;;
2872;SDS011;1444;49.166;7.312;2023-05-16T11:38:29;6.80;;;1.97;;
2872;SDS011;1444;49.166;7.312;2023-05-16T11:41:03;10.10;;;3.40;;
2872;SDS011;1444;49.166;7.312;2023-05-16T11:43:37;4.40;;;2.40;;
2872;SDS011;1444;49.166;7.312;2023-05-16T11:46:09;3.90;;;2.27;;
2872;SDS011;1444;49.166;7.312;2023-05-16T11:48:36;5.37;;;3.40;;
2872;SDS011;1444;49.166;7.312;2023-05-16T11:51:05;7.30;;;2.93;;
2872;SDS011;1444;49.166;7.312;2023-05-16T11:53:32;7.37;;;3.10;;
2872;SDS011;1444;49.166;7.312;2023-05-16T11:55:59;4.93;;;2.60;;
2872;SDS011;1444;49.166;7.312;2023-05-16T11:58:27;8.63;;;3.20;;
2872;SDS011;1444;49.166;7.312;2023-05-16T12:00:54;9.83;;;2.93;;
2872;SDS011;1444;49.166;7.312;2023-05-16T12:03:21;11.87;;;3.60;;
2872;SDS011;1444;49.166;7.312;2023-05-16T12:05:49;6.40;;;3.03;;
2872;SDS011;1444;49.166;7.312;2023-05-16T12:08:18;5.53;;;2.30;;
2872;SDS011;1444;49.166;7.312;2023-05-16T12:10:47;6.40;;;2.80;;
2872;SDS011;1444;49.166;7.312;2023-05-16T12:13:15;6.23;;;2.90;;
2872;SDS011;1444;49.166;7.312;2023-05-16T12:15:43;8.57;;;3.20;;
2872;SDS011;1444;49.166;7.312;2023-05-16T12:18:10;8.10;;;2.70;;
2872;SDS011;1444;49.166;7.312;2023-05-16T12:20:38;4.83;;;2.80;;
2872;SDS011;1444;49.166;7.312;2023-05-16T12:23:09;9.50;;;2.30;;
2872;SDS011;1444;49.166;7.312;2023-05-16T12:25:37;4.93;;;3.23;;
2872;SDS011;1444;49.166;7.312;2023-05-16T12:28:11;6.87;;;3.90;;
2872;SDS011;1444;49.166;7.312;2023-05-16T12:30:39;6.90;;;3.20;;
2872;SDS011;1444;49.166;7.312;2023-05-16T12:33:08;6.93;;;2.50;;
2872;SDS011;1444;49.166;7.312;2023-05-16T12:35:36;7.93;;;2.90;;
2872;SDS011;1444;49.166;7.312;2023-05-16T12:38:04;5.40;;;2.60;;
2872;SDS011;1444;49.166;7.312;2023-05-16T12:40:31;8.53;;;2.93;;
2872;SDS011;1444;49.166;7.312;2023-05-16T12:42:59;10.03;;;2.97;;
2872;SDS011;1444;49.166;7.312;2023-05-16T12:45:26;9.83;;;3.10;;
2872;SDS011;1444;49.166;7.312;2023-05-16T12:47:53;4.47;;;2.70;;
2872;SDS011;1444;49.166;7.312;2023-05-16T12:50:20;6.73;;;2.83;;
2872;SDS011;1444;49.166;7.312;2023-05-16T12:52:48;6.97;;;2.40;;
2872;SDS011;1444;49.166;7.312;2023-05-16T12:55:15;18.57;;;3.20;;
2872;SDS011;1444;49.166;7.312;2023-05-16T12:57:43;5.90;;;1.90;;
2872;SDS011;1444;49.166;7.312;2023-05-16T13:00:14;11.33;;;2.90;;
2872;SDS011;1444;49.166;7.312;2023-05-16T13:02:42;11.50;;;3.33;;
2872;SDS011;1444;49.166;7.312;2023-05-16T13:05:10;5.17;;;2.80;;
2872;SDS011;1444;49.166;7.312;2023-05-16T13:07:37;8.63;;;2.77;;
2872;SDS011;1444;49.166;7.312;2023-05-16T13:10:05;12.70;;;3.23;;
2872;SDS011;1444;49.166;7.312;2023-05-16T13:12:34;5.10;;;2.60;;
2872;SDS011;1444;49.166;7.312;2023-05-16T13:15:02;5.93;;;2.87;;
2872;SDS011;1444;49.166;7.312;2023-05-16T13:17:32;6.47;;;2.70;;
2872;SDS011;1444;49.166;7.312;2023-05-16T13:19:59;16.37;;;2.70;;
2872;SDS011;1444;49.166;7.312;2023-05-16T13:22:25;6.03;;;2.80;;
2872;SDS011;1444;49.166;7.312;2023-05-16T13:24:52;7.10;;;2.27;;
2872;SDS011;1444;49.166;7.312;2023-05-16T13:27:19;5.57;;;1.93;;
2872;SDS011;1444;49.166;7.312;2023-05-16T13:29:46;2.60;;;1.90;;
2872;SDS011;1444;49.166;7.312;2023-05-16T13:32:13;4.80;;;1.80;;
2872;SDS011;1444;49.166;7.312;2023-05-16T13:34:41;2.90;;;2.10;;
2872;SDS011;1444;49.166;7.312;2023-05-16T13:37:08;4.70;;;2.03;;
2872;SDS011;1444;49.166;7.312;2023-05-16T13:39:35;6.23;;;2.33;;
2872;SDS011;1444;49.166;7.312;2023-05-16T13:42:02;7.80;;;2.23;;
2872;SDS011;1444;49.166;7.312;2023-05-16T13:44:29;2.43;;;1.83;;
2872;SDS011;1444;49.166;7.312;2023-05-16T13:46:56;3.90;;;1.87;;
2872;SDS011;1444;49.166;7.312;2023-05-16T13:49:23;6.63;;;2.13;;
2872;SDS011;1444;49.166;7.312;2023-05-16T13:51:51;13.63;;;1.77;;
2872;SDS011;1444;49.166;7.312;2023-05-16T13:54:18;5.47;;;2.30;;
2872;SDS011;1444;49.166;7.312;2023-05-16T13:56:45;8.07;;;1.70;;
2872;SDS011;1444;49.166;7.312;2023-05-16T13:59:12;6.73;;;2.10;;
2872;SDS011;1444;49.166;7.312;2023-05-16T14:01:39;6.03;;;2.10;;
2872;SDS011;1444;49.166;7.312;2023-05-16T14:04:06;6.57;;;1.60;;
2872;SDS011;1444;49.166;7.312;2023-05-16T14:06:33;5.03;;;2.07;;
2872;SDS011;1444;49.166;7.312;2023-05-16T14:09:01;4.93;;;1.37;;
2872;SDS011;1444;49.166;7.312;2023-05-16T14:11:28;2.63;;;1.33;;
2872;SDS011;1444;49.166;7.312;2023-05-16T14:13:56;10.23;;;1.80;;
2872;SDS011;1444;49.166;7.312;2023-05-16T14:16:23;5.33;;;1.93;;
2872;SDS011;1444;49.166;7.312;2023-05-16T14:18:50;6.43;;;1.83;;
2872;SDS011;1444;49.166;7.312;2023-05-16T14:21:17;2.73;;;1.20;;
2872;SDS011;1444;49.166;7.312;2023-05-16T14:23:43;9.87;;;2.50;;
2872;SDS011;1444;49.166;7.312;2023-05-16T14:26:12;7.13;;;1.83;;
2872;SDS011;1444;49.166;7.312;2023-05-16T14:28:39;4.93;;;1.60;;
2872;SDS011;1444;49.166;7.312;2023-05-16T14:31:06;5.20;;;1.90;;
2872;SDS011;1444;49.166;7.312;2023-05-16T14:33:33;7.33;;;2.13;;
2872;SDS011;1444;49.166;7.312;2023-05-16T14:36:00;5.43;;;1.90;;
2872;SDS011;1444;49.166;7.312;2023-05-16T14:38:27;6.17;;;2.17;;
2872;SDS011;1444;49.166;7.312;2023-05-16T14:40:53;4.60;;;2.27;;
2872;SDS011;1444;49.166;7.312;2023-05-16T14:43:21;3.40;;;1.90;;
2872;SDS011;1444;49.166;7.312;2023-05-16T14:45:48;5.13;;;2.33;;
2872;SDS011;1444;49.166;7.312;2023-05-16T14:48:15;3.93;;;2.57;;
2872;SDS011;1444;49.166;7.312;2023-05-16T14:50:42;2.83;;;1.93;;
2872;SDS011;1444;49.166;7.312;2023-05-16T14:53:10;4.67;;;2.33;;
2872;SDS011;1444;49.166;7.312;2023-05-16T14:55:36;4.20;;;2.20;;
2872;SDS011;1444;49.166;7.312;2023-05-16T14:58:03;2.87;;;1.53;;
2872;SDS011;1444;49.166;7.312;2023-05-16T15:00:32;9.43;;;1.73;;
2872;SDS011;1444;49.166;7.312;2023-05-16T15:02:59;3.50;;;2.00;;
2872;SDS011;1444;49.166;7.312;2023-05-16T15:05:26;3.23;;;2.93;;
2872;SDS011;1444;49.166;7.312;2023-05-16T15:07:53;14.17;;;2.90;;
2872;SDS011;1444;49.166;7.312;2023-05-16T15:10:20;11.13;;;4.57;;
2872;SDS011;1444;49.166;7.312;2023-05-16T15:12:47;2.70;;;1.67;;